Time,TemperatureF,DewpointF,PressureIn,WindDirection,WindDirectionDegrees,WindSpeedMPH,WindSpeedGustMPH,Humidity,HourlyPrecipIn,Conditions,Clouds,dailyrainin,SoftwareType,DateUTC
2013-04-27 00:05:00,49.6,46.5,30.13,South,180,5.0,16.0,89,0.00,,,0.00,Wunderground v.1.15,2013-04-27 05:05:00,
2013-04-27 00:10:00,49.6,46.8,30.13,South,180,4.0,16.0,90,0.00,,,0.00,Wunderground v.1.15,2013-04-27 05:10:00,
2013-04-27 00:15:00,49.5,46.7,30.13,South,180,4.0,16.0,90,0.00,,,0.00,Wunderground v.1.15,2013-04-27 05:15:00,
2013-04-27 00:20:00,49.4,46.6,30.14,South,181,3.0,16.0,90,0.00,,,0.00,Wunderground v.1.15,2013-04-27 05:20:00,
2013-04-27 00:25:00,49.3,46.5,30.14,South,181,4.0,16.0,90,0.00,,,0.00,Wunderground v.1.15,2013-04-27 05:25:00,
2013-04-27 00:35:00,49.0,46.2,30.14,South,182,4.0,16.0,90,0.00,,,0.00,Wunderground v.1.15,2013-04-27 05:35:00,
2013-04-27 00:40:00,48.8,46.0,30.14,South,183,4.0,16.0,90,0.00,,,0.00,Wunderground v.1.15,2013-04-27 05:40:00,
2013-04-27 00:45:00,48.7,45.9,30.14,South,183,4.0,16.0,90,0.00,,,0.00,Wunderground v.1.15,2013-04-27 05:45:00,
2013-04-27 00:50:00,48.7,46.2,30.14,South,184,4.0,4.0,91,0.00,,,0.00,Wunderground v.1.15,2013-04-27 05:50:00,
2013-04-27 01:00:00,48.6,46.1,30.14,South,184,3.0,16.0,91,0.00,,,0.00,Wunderground v.1.15,2013-04-27 06:00:00,
2013-04-27 01:10:00,48.3,45.8,30.14,South,184,4.0,16.0,91,0.00,,,0.00,Wunderground v.1.15,2013-04-27 06:10:00,
2013-04-27 01:15:00,48.2,45.7,30.14,South,184,4.0,16.0,91,0.00,,,0.00,Wunderground v.1.15,2013-04-27 06:15:00,
2013-04-27 01:20:00,48.0,45.5,30.14,South,184,3.0,3.0,91,0.00,,,0.00,Wunderground v.1.15,2013-04-27 06:20:00,
2013-04-27 01:25:00,47.8,45.3,30.14,South,184,3.0,16.0,91,0.00,,,0.00,Wunderground v.1.15,2013-04-27 06:25:00,
2013-04-27 01:30:00,47.5,45.0,30.14,South,184,2.0,16.0,91,0.00,,,0.00,Wunderground v.1.15,2013-04-27 06:30:00,
2013-04-27 01:35:00,47.3,44.8,30.14,South,184,2.0,16.0,91,0.00,,,0.00,Wunderground v.1.15,2013-04-27 06:35:00,
2013-04-27 01:45:00,46.9,44.7,30.13,South,184,1.0,16.0,92,0.00,,,0.00,Wunderground v.1.15,2013-04-27 06:45:00,
2013-04-27 01:50:00,46.8,44.6,30.14,South,184,0.0,16.0,92,0.00,,,0.00,Wunderground v.1.15,2013-04-27 06:50:00,
2013-04-27 01:55:00,46.6,44.4,30.14,South,184,0.0,16.0,92,0.00,,,0.00,Wunderground v.1.15,2013-04-27 06:55:00,
2013-04-27 02:05:00,46.5,44.3,30.14,South,184,0.0,16.0,92,0.00,,,0.00,Wunderground v.1.15,2013-04-27 07:05:00,
2013-04-27 02:10:00,46.1,43.6,30.14,South,184,0.0,16.0,91,0.00,,,0.00,Wunderground v.1.15,2013-04-27 07:10:00,
2013-04-27 02:20:00,45.2,43.0,30.14,South,184,0.0,16.0,92,0.00,,,0.00,Wunderground v.1.15,2013-04-27 07:20:00,
2013-04-27 02:25:00,45.2,43.3,30.14,South,184,0.0,16.0,93,0.00,,,0.00,Wunderground v.1.15,2013-04-27 07:25:00,
2013-04-27 02:30:00,45.1,43.2,30.14,South,184,0.0,16.0,93,0.00,,,0.00,Wunderground v.1.15,2013-04-27 07:30:00,
2013-04-27 02:35:00,44.9,42.7,30.13,South,184,0.0,16.0,92,0.00,,,0.00,Wunderground v.1.15,2013-04-27 07:35:00,
2013-04-27 02:40:00,44.5,42.6,30.13,South,184,0.0,16.0,93,0.00,,,0.00,Wunderground v.1.15,2013-04-27 07:40:00,
2013-04-27 02:50:00,44.7,43.1,30.13,South,184,0.0,16.0,94,0.00,,,0.00,Wunderground v.1.15,2013-04-27 07:50:00,
2013-04-27 02:55:00,44.5,42.9,30.13,South,184,0.0,16.0,94,0.00,,,0.00,Wunderground v.1.15,2013-04-27 07:55:00,
2013-04-27 03:00:00,44.6,43.0,30.13,South,184,0.0,16.0,94,0.00,,,0.00,Wunderground v.1.15,2013-04-27 08:00:00,
2013-04-27 03:10:00,44.9,43.6,30.12,South,184,1.0,1.0,95,0.00,,,0.00,Wunderground v.1.15,2013-04-27 08:10:00,
2013-04-27 03:15:00,45.0,43.7,30.12,South,184,1.0,16.0,95,0.00,,,0.00,Wunderground v.1.15,2013-04-27 08:15:00,
2013-04-27 03:25:00,45.2,43.9,30.12,South,184,2.0,16.0,95,0.00,,,0.00,Wunderground v.1.15,2013-04-27 08:25:00,
2013-04-27 03:30:00,45.1,43.8,30.11,South,184,2.0,16.0,95,0.00,,,0.00,Wunderground v.1.15,2013-04-27 08:30:00,
2013-04-27 03:35:00,44.9,43.3,30.11,South,184,1.0,16.0,94,0.00,,,0.00,Wunderground v.1.15,2013-04-27 08:35:00,
2013-04-27 03:40:00,44.6,43.0,30.11,South,184,1.0,1.0,94,0.00,,,0.00,Wunderground v.1.15,2013-04-27 08:40:00,
2013-04-27 03:45:00,44.5,43.2,30.11,South,184,0.0,16.0,95,0.00,,,0.00,Wunderground v.1.15,2013-04-27 08:45:00,
2013-04-27 03:50:00,44.5,43.2,30.11,South,184,0.0,16.0,95,0.00,,,0.00,Wunderground v.1.15,2013-04-27 08:50:00,
2013-04-27 04:00:00,44.6,43.3,30.10,South,184,0.0,16.0,95,0.00,,,0.00,Wunderground v.1.15,2013-04-27 09:00:00,
2013-04-27 04:05:00,44.6,43.3,30.10,South,184,0.0,16.0,95,0.00,,,0.00,Wunderground v.1.15,2013-04-27 09:05:00,
2013-04-27 04:15:00,44.6,43.3,30.10,South,184,1.0,16.0,95,0.00,,,0.00,Wunderground v.1.15,2013-04-27 09:15:00,
2013-04-27 04:20:00,44.5,43.2,30.10,South,184,0.0,16.0,95,0.00,,,0.00,Wunderground v.1.15,2013-04-27 09:20:00,
2013-04-27 04:25:00,44.5,43.2,30.10,South,184,0.0,16.0,95,0.00,,,0.00,Wunderground v.1.15,2013-04-27 09:25:00,
2013-04-27 04:35:00,44.6,43.3,30.10,South,184,0.0,16.0,95,0.00,,,0.00,Wunderground v.1.15,2013-04-27 09:35:00,
2013-04-27 04:40:00,44.7,43.6,30.10,South,184,0.0,16.0,96,0.00,,,0.00,Wunderground v.1.15,2013-04-27 09:40:00,
2013-04-27 04:45:00,44.9,43.8,30.10,South,185,0.0,16.0,96,0.00,,,0.00,Wunderground v.1.15,2013-04-27 09:45:00,
2013-04-27 04:50:00,44.9,43.8,30.09,South,185,0.0,16.0,96,0.00,,,0.00,Wunderground v.1.15,2013-04-27 09:50:00,
2013-04-27 04:55:00,45.1,44.0,30.09,South,185,0.0,16.0,96,0.00,,,0.00,Wunderground v.1.15,2013-04-27 09:55:00,
2013-04-27 05:05:00,45.2,44.1,30.09,South,185,0.0,16.0,96,0.00,,,0.00,Wunderground v.1.15,2013-04-27 10:05:00,
2013-04-27 05:10:00,45.3,44.2,30.09,South,185,0.0,16.0,96,0.00,,,0.00,Wunderground v.1.15,2013-04-27 10:10:00,
2013-04-27 05:20:00,45.5,44.4,30.09,South,185,1.0,1.0,96,0.00,,,0.00,Wunderground v.1.15,2013-04-27 10:20:00,
2013-04-27 05:25:00,45.5,44.4,30.09,South,186,0.0,16.0,96,0.00,,,0.00,Wunderground v.1.15,2013-04-27 10:25:00,
2013-04-27 05:30:00,45.5,44.4,30.09,South,186,1.0,1.0,96,0.00,,,0.00,Wunderground v.1.15,2013-04-27 10:30:00,
2013-04-27 05:40:00,45.7,44.6,30.09,South,186,0.0,16.0,96,0.00,,,0.00,Wunderground v.1.15,2013-04-27 10:40:00,
2013-04-27 05:45:00,45.7,44.6,30.09,South,186,0.0,16.0,96,0.00,,,0.00,Wunderground v.1.15,2013-04-27 10:45:00,
2013-04-27 05:50:00,45.8,44.7,30.09,South,186,0.0,16.0,96,0.00,,,0.00,Wunderground v.1.15,2013-04-27 10:50:00,
2013-04-27 05:55:00,45.8,44.7,30.09,South,186,0.0,16.0,96,0.00,,,0.00,Wunderground v.1.15,2013-04-27 10:55:00,
2013-04-27 06:00:00,45.9,44.8,30.10,South,186,0.0,16.0,96,0.00,,,0.00,Wunderground v.1.15,2013-04-27 11:00:00,
2013-04-27 06:05:00,46.0,44.9,30.10,South,186,0.0,16.0,96,0.00,,,0.00,Wunderground v.1.15,2013-04-27 11:05:00,
2013-04-27 06:15:00,46.3,45.2,30.10,South,186,1.0,16.0,96,0.00,,,0.00,Wunderground v.1.15,2013-04-27 11:15:00,
2013-04-27 06:20:00,46.4,45.3,30.10,South,186,2.0,16.0,96,0.00,,,0.00,Wunderground v.1.15,2013-04-27 11:20:00,
2013-04-27 06:30:00,46.5,45.4,30.10,South,186,3.0,16.0,96,0.00,,,0.00,Wunderground v.1.15,2013-04-27 11:30:00,
2013-04-27 06:35:00,46.6,45.5,30.10,South,186,3.0,16.0,96,0.00,,,0.00,Wunderground v.1.15,2013-04-27 11:35:00,
2013-04-27 06:40:00,46.6,45.5,30.10,South,186,3.0,3.0,96,0.00,,,0.00,Wunderground v.1.15,2013-04-27 11:40:00,
2013-04-27 06:50:00,46.7,45.6,30.10,South,188,3.0,3.0,96,0.00,,,0.00,Wunderground v.1.15,2013-04-27 11:50:00,
2013-04-27 06:55:00,46.7,45.6,30.11,South,188,3.0,16.0,96,0.00,,,0.00,Wunderground v.1.15,2013-04-27 11:55:00,
2013-04-27 07:00:00,46.8,45.7,30.11,South,188,2.0,2.0,96,0.00,,,0.00,Wunderground v.1.15,2013-04-27 12:00:00,
2013-04-27 07:05:00,46.8,45.7,30.11,South,188,1.0,4.0,96,0.00,,,0.00,Wunderground v.1.15,2013-04-27 12:05:00,
2013-04-27 07:10:00,46.8,45.7,30.11,South,188,1.0,1.0,96,0.00,,,0.00,Wunderground v.1.15,2013-04-27 12:10:00,
2013-04-27 07:20:00,46.9,45.8,30.11,South,188,1.0,16.0,96,0.00,,,0.00,Wunderground v.1.15,2013-04-27 12:20:00,
2013-04-27 07:25:00,46.9,45.8,30.11,South,188,1.0,16.0,96,0.00,,,0.00,Wunderground v.1.15,2013-04-27 12:25:00,
2013-04-27 07:35:00,47.0,46.2,30.11,South,188,2.0,16.0,97,0.00,,,0.00,Wunderground v.1.15,2013-04-27 12:35:00,
2013-04-27 07:40:00,47.0,46.2,30.11,South,188,2.0,2.0,97,0.00,,,0.00,Wunderground v.1.15,2013-04-27 12:40:00,
2013-04-27 07:45:00,47.1,46.3,30.11,South,188,2.0,16.0,97,0.00,,,0.00,Wunderground v.1.15,2013-04-27 12:45:00,
2013-04-27 07:55:00,47.3,46.5,30.12,South,188,2.0,16.0,97,0.00,,,0.00,Wunderground v.1.15,2013-04-27 12:55:00,
2013-04-27 08:00:00,47.4,46.6,30.11,South,188,2.0,16.0,97,0.00,,,0.00,Wunderground v.1.15,2013-04-27 13:00:00,
2013-04-27 08:05:00,47.5,46.7,30.11,South,188,2.0,16.0,97,0.00,,,0.00,Wunderground v.1.15,2013-04-27 13:05:00,
2013-04-27 08:10:00,47.6,46.8,30.11,South,188,2.0,2.0,97,0.00,,,0.00,Wunderground v.1.15,2013-04-27 13:10:00,
2013-04-27 08:15:00,47.6,46.8,30.11,South,188,1.0,16.0,97,0.00,,,0.00,Wunderground v.1.15,2013-04-27 13:15:00,
2013-04-27 08:20:00,47.7,46.9,30.11,South,188,2.0,16.0,97,0.00,,,0.00,Wunderground v.1.15,2013-04-27 13:20:00,
2013-04-27 08:30:00,47.8,47.0,30.11,South,188,3.0,16.0,97,0.00,,,0.00,Wunderground v.1.15,2013-04-27 13:30:00,
2013-04-27 08:40:00,47.9,47.1,30.11,South,188,3.0,3.0,97,0.00,,,0.00,Wunderground v.1.15,2013-04-27 13:40:00,
2013-04-27 08:50:00,48.0,47.2,30.12,South,188,3.0,16.0,97,0.00,,,0.00,Wunderground v.1.15,2013-04-27 13:50:00,
2013-04-27 08:55:00,48.1,47.3,30.11,South,188,3.0,16.0,97,0.00,,,0.00,Wunderground v.1.15,2013-04-27 13:55:00,
2013-04-27 09:00:00,48.1,47.3,30.12,South,185,3.0,16.0,97,0.00,,,0.00,Wunderground v.1.15,2013-04-27 14:00:00,
2013-04-27 09:10:00,48.3,47.5,30.11,South,184,4.0,16.0,97,0.00,,,0.00,Wunderground v.1.15,2013-04-27 14:10:00,
2013-04-27 09:15:00,48.5,47.7,30.11,South,182,4.0,16.0,97,0.00,,,0.00,Wunderground v.1.15,2013-04-27 14:15:00,
2013-04-27 09:20:00,48.5,47.7,30.11,South,183,4.0,16.0,97,0.00,,,0.00,Wunderground v.1.15,2013-04-27 14:20:00,
2013-04-27 09:30:00,48.7,47.9,30.11,South,183,4.0,4.0,97,0.00,,,0.00,Wunderground v.1.15,2013-04-27 14:30:00,
2013-04-27 09:35:00,48.7,47.9,30.10,South,184,4.0,16.0,97,0.00,,,0.00,Wunderground v.1.15,2013-04-27 14:35:00,
2013-04-27 09:45:00,48.7,47.6,30.10,South,175,5.0,16.0,96,0.00,,,0.00,Wunderground v.1.15,2013-04-27 14:45:00,
2013-04-27 09:50:00,48.7,47.9,30.10,South,178,6.0,6.0,97,0.00,,,0.00,Wunderground v.1.15,2013-04-27 14:50:00,
2013-04-27 09:55:00,48.9,48.1,30.10,South,186,5.0,16.0,97,0.00,,,0.00,Wunderground v.1.15,2013-04-27 14:55:00,
2013-04-27 10:00:00,49.1,48.3,30.10,South,179,5.0,5.0,97,0.00,,,0.00,Wunderground v.1.15,2013-04-27 15:00:00,
2013-04-27 10:05:00,49.2,48.1,30.10,South,187,4.0,16.0,96,0.00,,,0.00,Wunderground v.1.15,2013-04-27 15:05:00,
2013-04-27 10:15:00,49.6,48.5,30.10,South,181,4.0,16.0,96,0.00,,,0.00,Wunderground v.1.15,2013-04-27 15:15:00,
2013-04-27 10:20:00,49.7,48.6,30.10,South,183,4.0,16.0,96,0.00,,,0.00,Wunderground v.1.15,2013-04-27 15:20:00,
2013-04-27 10:25:00,49.9,48.8,30.10,South,180,4.0,16.0,96,0.00,,,0.00,Wunderground v.1.15,2013-04-27 15:25:00,
2013-04-27 10:35:00,50.2,48.8,30.09,SSE,167,5.0,16.0,95,0.00,,,0.00,Wunderground v.1.15,2013-04-27 15:35:00,
2013-04-27 10:40:00,50.3,48.9,30.10,South,169,6.0,16.0,95,0.00,,,0.00,Wunderground v.1.15,2013-04-27 15:40:00,
2013-04-27 10:50:00,50.6,48.9,30.10,South,171,6.0,6.0,94,0.00,,,0.00,Wunderground v.1.15,2013-04-27 15:50:00,
2013-04-27 10:55:00,50.8,49.1,30.10,South,173,5.0,8.0,94,0.00,,,0.00,Wunderground v.1.15,2013-04-27 15:55:00,
2013-04-27 11:00:00,51.1,49.1,30.10,South,173,6.0,16.0,93,0.00,,,0.00,Wunderground v.1.15,2013-04-27 16:00:00,
2013-04-27 11:05:00,51.3,49.3,30.10,South,179,6.0,16.0,93,0.00,,,0.00,Wunderground v.1.15,2013-04-27 16:05:00,
2013-04-27 11:10:00,51.6,49.4,30.10,South,173,5.0,16.0,92,0.00,,,0.00,Wunderground v.1.15,2013-04-27 16:10:00,
2013-04-27 11:15:00,51.7,49.5,30.10,SSE,168,5.0,16.0,92,0.00,,,0.00,Wunderground v.1.15,2013-04-27 16:15:00,
2013-04-27 11:25:00,52.1,49.3,30.09,South,175,6.0,16.0,90,0.00,,,0.00,Wunderground v.1.15,2013-04-27 16:25:00,
2013-04-27 11:35:00,52.4,49.6,30.09,South,180,6.0,16.0,90,0.00,,,0.00,Wunderground v.1.15,2013-04-27 16:35:00,
2013-04-27 11:40:00,52.6,49.4,30.09,South,172,6.0,6.0,89,0.00,,,0.00,Wunderground v.1.15,2013-04-27 16:40:00,
2013-04-27 11:45:00,52.8,49.6,30.09,SSE,167,6.0,16.0,89,0.00,,,0.00,Wunderground v.1.15,2013-04-27 16:45:00,
2013-04-27 11:50:00,53.2,49.7,30.09,SSE,165,6.0,6.0,88,0.00,,,0.00,Wunderground v.1.15,2013-04-27 16:50:00,
2013-04-27 12:00:00,54.1,50.3,30.09,South,175,4.0,16.0,87,0.00,,,0.00,Wunderground v.1.15,2013-04-27 17:00:00,
2013-04-27 12:05:00,54.6,50.2,30.09,South,181,4.0,16.0,85,0.00,,,0.00,Wunderground v.1.15,2013-04-27 17:05:00,
2013-04-27 12:10:00,54.9,50.2,30.09,South,169,4.0,16.0,84,0.00,,,0.00,Wunderground v.1.15,2013-04-27 17:10:00,
2013-04-27 12:15:00,55.2,50.4,30.09,South,171,5.0,16.0,84,0.00,,,0.00,Wunderground v.1.15,2013-04-27 17:15:00,
2013-04-27 12:20:00,55.5,50.4,30.09,SSE,166,6.0,16.0,83,0.00,,,0.00,Wunderground v.1.15,2013-04-27 17:20:00,
2013-04-27 12:30:00,56.5,51.4,30.08,SSE,157,4.0,16.0,83,0.00,,,0.00,Wunderground v.1.15,2013-04-27 17:30:00,
2013-04-27 12:40:00,56.8,51.0,30.08,SSE,157,5.0,16.0,81,0.00,,,0.00,Wunderground v.1.15,2013-04-27 17:40:00,
2013-04-27 12:45:00,57.1,51.0,30.07,SSE,159,5.0,16.0,80,0.00,,,0.00,Wunderground v.1.15,2013-04-27 17:45:00,
2013-04-27 12:50:00,57.3,51.2,30.07,SSE,158,4.0,16.0,80,0.00,,,0.00,Wunderground v.1.15,2013-04-27 17:50:00,
2013-04-27 12:55:00,57.7,51.2,30.07,SSE,168,4.0,16.0,79,0.00,,,0.00,Wunderground v.1.15,2013-04-27 17:55:00,
2013-04-27 13:05:00,58.8,51.6,30.07,SSE,167,3.0,16.0,77,0.00,,,0.00,Wunderground v.1.15,2013-04-27 18:05:00,
2013-04-27 13:10:00,59.0,51.4,30.06,SSE,168,4.0,16.0,76,0.00,,,0.00,Wunderground v.1.15,2013-04-27 18:10:00,
2013-04-27 13:15:00,59.0,51.1,30.06,South,171,4.0,16.0,75,0.00,,,0.00,Wunderground v.1.15,2013-04-27 18:15:00,
2013-04-27 13:20:00,59.2,51.3,30.06,South,171,3.0,16.0,75,0.00,,,0.00,Wunderground v.1.15,2013-04-27 18:20:00,
2013-04-27 13:25:00,59.6,51.7,30.06,South,171,2.0,16.0,75,0.00,,,0.00,Wunderground v.1.15,2013-04-27 18:25:00,
2013-04-27 13:35:00,60.7,51.6,30.05,South,171,3.0,16.0,72,0.00,,,0.00,Wunderground v.1.15,2013-04-27 18:35:00,
2013-04-27 13:45:00,61.4,51.9,30.05,SSE,168,3.0,16.0,71,0.00,,,0.00,Wunderground v.1.15,2013-04-27 18:45:00,
2013-04-27 13:50:00,61.4,51.5,30.04,SSE,167,4.0,4.0,70,0.00,,,0.00,Wunderground v.1.15,2013-04-27 18:50:00,
2013-04-27 13:55:00,61.7,51.8,30.04,SSE,159,4.0,16.0,70,0.00,,,0.00,Wunderground v.1.15,2013-04-27 18:55:00,
2013-04-27 14:00:00,62.2,52.7,30.03,South,176,4.0,16.0,71,0.00,,,0.00,Wunderground v.1.15,2013-04-27 19:00:00,
2013-04-27 14:05:00,62.7,51.6,30.03,SSE,165,4.0,16.0,67,0.00,,,0.00,Wunderground v.1.15,2013-04-27 19:05:00,
2013-04-27 14:15:00,63.0,51.9,30.03,SSE,156,3.0,6.0,67,0.00,,,0.00,Wunderground v.1.15,2013-04-27 19:15:00,
2013-04-27 14:20:00,63.1,52.0,30.03,South,180,4.0,16.0,67,0.00,,,0.00,Wunderground v.1.15,2013-04-27 19:20:00,
2013-04-27 14:25:00,63.5,51.9,30.03,SSE,156,5.0,16.0,66,0.00,,,0.00,Wunderground v.1.15,2013-04-27 19:25:00,
2013-04-27 14:30:00,64.0,53.2,30.03,SSE,162,4.0,16.0,68,0.00,,,0.00,Wunderground v.1.15,2013-04-27 19:30:00,
2013-04-27 14:40:00,64.7,51.8,30.02,South,169,5.0,16.0,63,0.00,,,0.00,Wunderground v.1.15,2013-04-27 19:40:00,
2013-04-27 14:50:00,64.6,52.6,30.01,South,170,4.0,4.0,65,0.00,,,0.00,Wunderground v.1.15,2013-04-27 19:50:00,
2013-04-27 14:55:00,65.1,52.6,30.01,SSE,165,4.0,16.0,64,0.00,,,0.00,Wunderground v.1.15,2013-04-27 19:55:00,
2013-04-27 15:00:00,65.5,52.6,30.01,SSE,150,4.0,16.0,63,0.00,,,0.00,Wunderground v.1.15,2013-04-27 20:00:00,
2013-04-27 15:05:00,65.8,52.4,30.01,SSE,156,5.0,16.0,62,0.00,,,0.00,Wunderground v.1.15,2013-04-27 20:05:00,
2013-04-27 15:10:00,65.8,52.0,30.01,SSE,167,6.0,16.0,61,0.00,,,0.00,Wunderground v.1.15,2013-04-27 20:10:00,
2013-04-27 15:20:00,66.3,52.4,30.00,SSE,150,4.0,16.0,61,0.00,,,0.00,Wunderground v.1.15,2013-04-27 20:20:00,
2013-04-27 15:25:00,66.4,52.1,29.99,SE,138,5.0,16.0,60,0.00,,,0.00,Wunderground v.1.15,2013-04-27 20:25:00,
2013-04-27 15:30:00,66.6,52.7,29.99,SSE,157,6.0,16.0,61,0.00,,,0.00,Wunderground v.1.15,2013-04-27 20:30:00,
2013-04-27 15:35:00,66.9,52.6,29.99,SSE,151,5.0,16.0,60,0.00,,,0.00,Wunderground v.1.15,2013-04-27 20:35:00,
2013-04-27 15:45:00,67.1,51.4,29.99,SE,146,5.0,16.0,57,0.00,,,0.00,Wunderground v.1.15,2013-04-27 20:45:00,
2013-04-27 15:55:00,67.7,51.9,29.98,SE,139,4.0,16.0,57,0.00,,,0.00,Wunderground v.1.15,2013-04-27 20:55:00,
2013-04-27 16:00:00,67.9,51.1,29.98,SSE,159,5.0,5.0,55,0.00,,,0.00,Wunderground v.1.15,2013-04-27 21:00:00,
2013-04-27 16:05:00,67.9,51.1,29.98,SSE,159,5.0,16.0,55,0.00,,,0.00,Wunderground v.1.15,2013-04-27 21:05:00,
2013-04-27 16:10:00,67.9,51.6,29.98,SSE,158,4.0,4.0,56,0.00,,,0.00,Wunderground v.1.15,2013-04-27 21:10:00,
2013-04-27 16:15:00,68.2,50.9,29.97,SSE,152,3.0,5.0,54,0.00,,,0.00,Wunderground v.1.15,2013-04-27 21:15:00,
2013-04-27 16:20:00,68.5,50.7,29.97,SE,143,4.0,16.0,53,0.00,,,0.00,Wunderground v.1.15,2013-04-27 21:20:00,
2013-04-27 16:30:00,69.2,51.8,29.97,SE,145,3.0,16.0,54,0.00,,,0.00,Wunderground v.1.15,2013-04-27 21:30:00,
2013-04-27 16:35:00,69.2,50.3,29.96,SSE,148,4.0,16.0,51,0.00,,,0.00,Wunderground v.1.15,2013-04-27 21:35:00,
2013-04-27 16:40:00,69.2,50.8,29.96,SSE,152,5.0,5.0,52,0.00,,,0.00,Wunderground v.1.15,2013-04-27 21:40:00,
2013-04-27 16:50:00,69.2,49.8,29.96,SSE,158,3.0,3.0,50,0.00,,,0.00,Wunderground v.1.15,2013-04-27 21:50:00,
2013-04-27 16:55:00,69.5,50.6,29.95,SSE,158,2.0,16.0,51,0.00,,,0.00,Wunderground v.1.15,2013-04-27 21:55:00,
2013-04-27 17:05:00,69.5,49.5,29.95,SE,144,4.0,16.0,49,0.00,,,0.00,Wunderground v.1.15,2013-04-27 22:05:00,
2013-04-27 17:10:00,69.5,48.9,29.95,SE,146,5.0,5.0,48,0.00,,,0.00,Wunderground v.1.15,2013-04-27 22:10:00,
2013-04-27 17:15:00,69.4,49.4,29.95,SE,143,5.0,6.0,49,0.00,,,0.00,Wunderground v.1.15,2013-04-27 22:15:00,
2013-04-27 17:20:00,69.5,48.9,29.94,ESE,121,6.0,16.0,48,0.00,,,0.00,Wunderground v.1.15,2013-04-27 22:20:00,
2013-04-27 17:25:00,69.5,48.9,29.94,SE,143,7.0,16.0,48,0.00,,,0.00,Wunderground v.1.15,2013-04-27 22:25:00,
2013-04-27 17:35:00,69.8,49.2,29.94,SE,140,4.0,16.0,48,0.00,,,0.00,Wunderground v.1.15,2013-04-27 22:35:00,
2013-04-27 17:40:00,69.8,48.1,29.94,SSE,155,4.0,16.0,46,0.00,,,0.00,Wunderground v.1.15,2013-04-27 22:40:00,
2013-04-27 17:45:00,69.8,48.7,29.94,SSE,156,4.0,16.0,47,0.00,,,0.00,Wunderground v.1.15,2013-04-27 22:45:00,
2013-04-27 17:55:00,69.9,48.7,29.93,SSE,159,5.0,8.0,47,0.00,,,0.00,Wunderground v.1.15,2013-04-27 22:55:00,
2013-04-27 18:00:00,70.0,47.7,29.93,SSE,153,4.0,16.0,45,0.00,,,0.00,Wunderground v.1.15,2013-04-27 23:00:00,
2013-04-27 18:05:00,69.9,48.2,29.92,SE,144,5.0,16.0,46,0.00,,,0.00,Wunderground v.1.15,2013-04-27 23:05:00,
2013-04-27 18:10:00,70.0,47.7,29.93,SE,140,4.0,16.0,45,0.00,,,0.00,Wunderground v.1.15,2013-04-27 23:10:00,
2013-04-27 18:15:00,70.1,47.8,29.92,SSE,155,4.0,16.0,45,0.00,,,0.00,Wunderground v.1.15,2013-04-27 23:15:00,
2013-04-27 18:20:00,70.2,47.9,29.93,ESE,123,4.0,4.0,45,0.00,,,0.00,Wunderground v.1.15,2013-04-27 23:20:00,
2013-04-27 18:25:00,70.3,47.9,29.92,SSE,149,4.0,7.0,45,0.00,,,0.00,Wunderground v.1.15,2013-04-27 23:25:00,
2013-04-27 18:30:00,70.3,47.3,29.92,SSE,153,4.0,4.0,44,0.00,,,0.00,Wunderground v.1.15,2013-04-27 23:30:00,
2013-04-27 18:35:00,70.3,49.1,29.92,SE,127,3.0,7.0,47,0.00,,,0.00,Wunderground v.1.15,2013-04-27 23:35:00,
2013-04-27 18:45:00,70.1,47.8,29.92,SE,140,5.0,5.0,45,0.00,,,0.00,Wunderground v.1.15,2013-04-27 23:45:00,
2013-04-27 18:50:00,70.1,48.4,29.91,SE,137,5.0,16.0,46,0.00,,,0.00,Wunderground v.1.15,2013-04-27 23:50:00,
2013-04-27 19:00:00,69.6,47.9,29.91,ESE,123,6.0,16.0,46,0.00,,,0.00,Wunderground v.1.15,2013-04-28 00:00:00,
2013-04-27 19:05:00,69.4,48.3,29.91,ESE,123,6.0,16.0,47,0.00,,,0.00,Wunderground v.1.15,2013-04-28 00:05:00,
2013-04-27 19:10:00,69.2,48.1,29.91,SE,127,6.0,16.0,47,0.00,,,0.00,Wunderground v.1.15,2013-04-28 00:10:00,
2013-04-27 19:15:00,69.0,50.1,29.91,SE,124,7.0,16.0,51,0.00,,,0.00,Wunderground v.1.15,2013-04-28 00:15:00,
2013-04-27 19:20:00,68.2,50.9,29.91,ESE,121,8.0,16.0,54,0.00,,,0.00,Wunderground v.1.15,2013-04-28 00:20:00,
2013-04-27 19:25:00,67.7,50.9,29.91,ESE,117,9.0,16.0,55,0.00,,,0.00,Wunderground v.1.15,2013-04-28 00:25:00,
2013-04-27 19:30:00,67.3,51.1,29.91,ESE,113,9.0,16.0,56,0.00,,,0.00,Wunderground v.1.15,2013-04-28 00:30:00,
2013-04-27 19:35:00,66.9,51.2,29.91,SE,136,9.0,16.0,57,0.00,,,0.00,Wunderground v.1.15,2013-04-28 00:35:00,
2013-04-27 19:40:00,66.5,50.8,29.91,SE,130,9.0,9.0,57,0.00,,,0.00,Wunderground v.1.15,2013-04-28 00:40:00,
2013-04-27 19:45:00,66.2,51.0,29.91,SE,132,9.0,16.0,58,0.00,,,0.00,Wunderground v.1.15,2013-04-28 00:45:00,
2013-04-27 19:50:00,66.1,50.9,29.91,SE,136,8.0,16.0,58,0.00,,,0.00,Wunderground v.1.15,2013-04-28 00:50:00,
2013-04-27 19:55:00,66.0,50.8,29.91,SE,131,9.0,16.0,58,0.00,,,0.00,Wunderground v.1.15,2013-04-28 00:55:00,
2013-04-27 20:05:00,65.5,50.8,29.90,SE,139,10.0,16.0,59,0.00,,,0.00,Wunderground v.1.15,2013-04-28 01:05:00,
2013-04-27 20:10:00,65.3,50.6,29.90,SSE,149,11.0,11.0,59,0.00,,,0.00,Wunderground v.1.15,2013-04-28 01:10:00,
2013-04-27 20:15:00,65.1,50.9,29.90,SSE,165,11.0,16.0,60,0.00,,,0.00,Wunderground v.1.15,2013-04-28 01:15:00,
2013-04-27 20:25:00,64.5,50.7,29.90,South,172,9.0,16.0,61,0.00,,,0.00,Wunderground v.1.15,2013-04-28 01:25:00,
2013-04-27 20:30:00,64.2,50.5,29.90,SSE,161,8.0,8.0,61,0.00,,,0.00,Wunderground v.1.15,2013-04-28 01:30:00,
2013-04-27 20:35:00,63.9,50.6,29.90,SSE,150,8.0,11.0,62,0.00,,,0.00,Wunderground v.1.15,2013-04-28 01:35:00,
2013-04-27 20:40:00,63.7,50.4,29.90,SE,144,9.0,16.0,62,0.00,,,0.00,Wunderground v.1.15,2013-04-28 01:40:00,
2013-04-27 20:45:00,63.5,50.2,29.90,SE,142,9.0,16.0,62,0.00,,,0.00,Wunderground v.1.15,2013-04-28 01:45:00,
2013-04-27 20:50:00,63.3,50.5,29.90,SSE,155,9.0,16.0,63,0.00,,,0.00,Wunderground v.1.15,2013-04-28 01:50:00,
2013-04-27 20:55:00,63.1,50.3,29.90,SSE,162,9.0,16.0,63,0.00,,,0.00,Wunderground v.1.15,2013-04-28 01:55:00,
2013-04-27 21:00:00,62.8,50.4,29.90,SSE,157,9.0,16.0,64,0.00,,,0.00,Wunderground v.1.15,2013-04-28 02:00:00,
2013-04-27 21:10:00,62.5,50.2,29.90,SSE,151,9.0,9.0,64,0.00,,,0.00,Wunderground v.1.15,2013-04-28 02:10:00,
2013-04-27 21:15:00,62.3,50.4,29.90,SSE,161,8.0,16.0,65,0.00,,,0.00,Wunderground v.1.15,2013-04-28 02:15:00,
2013-04-27 21:20:00,62.1,50.2,29.90,SSE,152,8.0,16.0,65,0.00,,,0.00,Wunderground v.1.15,2013-04-28 02:20:00,
2013-04-27 21:25:00,61.9,50.0,29.90,SSE,160,8.0,16.0,65,0.00,,,0.00,Wunderground v.1.15,2013-04-28 02:25:00,
2013-04-27 21:35:00,61.6,50.1,29.90,South,169,9.0,16.0,66,0.00,,,0.00,Wunderground v.1.15,2013-04-28 02:35:00,
2013-04-27 21:40:00,61.5,50.0,29.91,SSE,164,8.0,16.0,66,0.00,,,0.00,Wunderground v.1.15,2013-04-28 02:40:00,
2013-04-27 21:45:00,61.2,49.7,29.91,SSE,165,8.0,16.0,66,0.00,,,0.00,Wunderground v.1.15,2013-04-28 02:45:00,
2013-04-27 21:50:00,61.0,50.0,29.91,SSE,166,7.0,16.0,67,0.00,,,0.00,Wunderground v.1.15,2013-04-28 02:50:00,
2013-04-27 21:55:00,60.8,49.8,29.90,South,180,8.0,16.0,67,0.00,,,0.00,Wunderground v.1.15,2013-04-28 02:55:00,
2013-04-27 22:05:00,60.3,49.7,29.91,SSE,164,8.0,16.0,68,0.00,,,0.00,Wunderground v.1.15,2013-04-28 03:05:00,
2013-04-27 22:15:00,59.8,49.6,29.91,SSE,160,8.0,16.0,69,0.00,,,0.00,Wunderground v.1.15,2013-04-28 03:15:00,
2013-04-27 22:20:00,59.6,49.8,29.91,South,176,7.0,7.0,70,0.00,,,0.00,Wunderground v.1.15,2013-04-28 03:20:00,
2013-04-27 22:25:00,59.3,49.5,29.90,SSE,163,7.0,12.0,70,0.00,,,0.00,Wunderground v.1.15,2013-04-28 03:25:00,
2013-04-27 22:30:00,59.1,49.7,29.91,SSE,163,8.0,8.0,71,0.00,,,0.00,Wunderground v.1.15,2013-04-28 03:30:00,
2013-04-27 22:40:00,58.6,49.2,29.91,South,175,7.0,16.0,71,0.00,,,0.00,Wunderground v.1.15,2013-04-28 03:40:00,
2013-04-27 22:45:00,58.4,49.4,29.91,South,177,7.0,16.0,72,0.00,,,0.00,Wunderground v.1.15,2013-04-28 03:45:00,
2013-04-27 22:50:00,58.2,49.2,29.91,SSE,163,7.0,16.0,72,0.00,,,0.00,Wunderground v.1.15,2013-04-28 03:50:00,
2013-04-27 22:55:00,58.0,49.4,29.90,SSE,161,8.0,16.0,73,0.00,,,0.00,Wunderground v.1.15,2013-04-28 03:55:00,
2013-04-27 23:00:00,57.7,49.1,29.90,South,177,8.0,8.0,73,0.00,,,0.00,Wunderground v.1.15,2013-04-28 04:00:00,
2013-04-27 23:05:00,57.4,49.2,29.90,South,170,7.0,16.0,74,0.00,,,0.00,Wunderground v.1.15,2013-04-28 04:05:00,
2013-04-27 23:15:00,57.2,49.0,29.90,SSE,157,7.0,16.0,74,0.00,,,0.00,Wunderground v.1.15,2013-04-28 04:15:00,
2013-04-27 23:20:00,57.1,48.9,29.90,SSE,168,7.0,7.0,74,0.00,,,0.00,Wunderground v.1.15,2013-04-28 04:20:00,
2013-04-27 23:25:00,56.9,49.1,29.90,South,172,7.0,16.0,75,0.00,,,0.00,Wunderground v.1.15,2013-04-28 04:25:00,
2013-04-27 23:30:00,56.8,49.0,29.89,SSE,162,7.0,7.0,75,0.00,,,0.00,Wunderground v.1.15,2013-04-28 04:30:00,
2013-04-27 23:35:00,56.6,48.8,29.89,SSE,167,7.0,16.0,75,0.00,,,0.00,Wunderground v.1.15,2013-04-28 04:35:00,
2013-04-27 23:40:00,56.4,48.9,29.90,SSE,164,7.0,16.0,76,0.00,,,0.00,Wunderground v.1.15,2013-04-28 04:40:00,
2013-04-27 23:50:00,56.1,48.6,29.89,South,172,7.0,7.0,76,0.00,,,0.00,Wunderground v.1.15,2013-04-28 04:50:00,
2013-04-27 23:55:00,55.9,48.8,29.89,South,173,6.0,16.0,77,0.00,,,0.00,Wunderground v.1.15,2013-04-28 04:55:00,